地図

経路データ

SID SEASON NUMBER BASIN SUBBASIN NAME ISO_TIME NATURE LAT LON WMO_WIND WMO_PRES WMO_AGENCY TRACK_TYPE DIST2LAND LANDFALL IFLAG USA_AGENCY USA_ATCF_ID USA_LAT USA_LON USA_RECORD USA_STATUS USA_WIND USA_PRES USA_SSHS USA_R34_NE USA_R34_SE USA_R34_SW USA_R34_NW USA_R50_NE USA_R50_SE USA_R50_SW USA_R50_NW USA_R64_NE USA_R64_SE USA_R64_SW USA_R64_NW USA_POCI USA_ROCI USA_RMW USA_EYE TOKYO_LAT TOKYO_LON TOKYO_GRADE TOKYO_WIND TOKYO_PRES TOKYO_R50_DIR TOKYO_R50_LONG TOKYO_R50_SHORT TOKYO_R30_DIR TOKYO_R30_LONG TOKYO_R30_SHORT TOKYO_LAND CMA_LAT CMA_LON CMA_CAT CMA_WIND CMA_PRES HKO_LAT HKO_LON HKO_CAT HKO_WIND HKO_PRES NEWDELHI_LAT NEWDELHI_LON NEWDELHI_GRADE NEWDELHI_WIND NEWDELHI_PRES NEWDELHI_CI NEWDELHI_DP NEWDELHI_POCI REUNION_LAT REUNION_LON REUNION_TYPE REUNION_WIND REUNION_PRES REUNION_TNUM REUNION_CI REUNION_RMW REUNION_R34_NE REUNION_R34_SE REUNION_R34_SW REUNION_R34_NW REUNION_R50_NE REUNION_R50_SE REUNION_R50_SW REUNION_R50_NW REUNION_R64_NE REUNION_R64_SE REUNION_R64_SW REUNION_R64_NW BOM_LAT BOM_LON BOM_TYPE BOM_WIND BOM_PRES BOM_TNUM BOM_CI BOM_RMW BOM_R34_NE BOM_R34_SE BOM_R34_SW BOM_R34_NW BOM_R50_NE BOM_R50_SE BOM_R50_SW BOM_R50_NW BOM_R64_NE BOM_R64_SE BOM_R64_SW BOM_R64_NW BOM_ROCI BOM_POCI BOM_EYE BOM_POS_METHOD BOM_PRES_METHOD NADI_LAT NADI_LON NADI_CAT NADI_WIND NADI_PRES WELLINGTON_LAT WELLINGTON_LON WELLINGTON_WIND WELLINGTON_PRES DS824_LAT DS824_LON DS824_STAGE DS824_WIND DS824_PRES TD9636_LAT TD9636_LON TD9636_STAGE TD9636_WIND TD9636_PRES TD9635_LAT TD9635_LON TD9635_WIND TD9635_PRES TD9635_ROCI NEUMANN_LAT NEUMANN_LON NEUMANN_CLASS NEUMANN_WIND NEUMANN_PRES MLC_LAT MLC_LON MLC_CLASS MLC_WIND MLC_PRES USA_GUST BOM_GUST BOM_GUST_PER REUNION_GUST REUNION_GUST_PER USA_SEAHGT USA_SEARAD_NE USA_SEARAD_SE USA_SEARAD_SW USA_SEARAD_NW STORM_SPEED STORM_DIR
1947302N11134 1947 86 WP MM CATHY 1947-10-28 12:00:00 NR 11.0000 133.500 main 824 729 __________O___ -1 11.0000 133.500 7 18 270
1947302N11134 1947 86 WP MM CATHY 1947-10-28 15:00:00 NR 10.9981 132.580 main 729 635 __________P___ -1 10.9981 132.580 7 18 270
1947302N11134 1947 86 WP MM CATHY 1947-10-28 18:00:00 NR 10.9957 131.697 main 635 552 __________P___ -1 10.9957 131.697 7 17 270
1947302N11134 1947 86 WP MM CATHY 1947-10-28 21:00:00 NR 10.9953 130.891 main 552 480 __________P___ -1 10.9953 130.891 7 15 270
1947302N11134 1947 86 WP MM CATHY 1947-10-29 00:00:00 NR 11.0000 130.200 main 480 426 __________O___ -1 11.0000 130.200 3 12 271
1947302N11134 1947 86 WP MM CATHY 1947-10-29 03:00:00 NR 11.0124 129.646 main 415 350 __________P___ -1 11.0124 129.646 3 12 279
1947302N11134 1947 86 WP MM CATHY 1947-10-29 06:00:00 TS 11.1905 128.983 main 350 296 O________OPO__ jtwc_wp WP201947 11.4000 128.700 60 0 11.4000 128.700 TC 60 11.0334 129.195 3 11.4000 128.700 60 993 300 12 287
1947302N11134 1947 86 WP MM CATHY 1947-10-29 09:00:00 TS 11.3642 128.440 main 287 235 P________PPP__ WP201947 11.5652 128.203 65 1 11.5652 128.203 TC 65 11.0627 128.796 3 11.5652 128.203 65 991 330 11 287
1947302N11134 1947 86 WP MM CATHY 1947-10-29 12:00:00 TS 11.5154 127.915 main 235 187 O________OOO__ jtwc_wp WP201947 11.7000 127.700 70 1 11.7000 127.700 TC 70 11.1000 128.400 4 70 11.7000 127.700 70 989 360 11 283
1947302N11134 1947 86 WP MM CATHY 1947-10-29 15:00:00 TS 11.6105 127.378 main 187 137 P________PPP__ WP201947 11.7800 127.192 70 1 11.7800 127.192 TC 70 11.1020 127.936 4 68 11.7800 127.192 70 988 360 10 276
1947302N11134 1947 86 WP MM CATHY 1947-10-29 18:00:00 TS 11.6293 126.891 main 137 90 O________OPO__ jtwc_wp WP201947 11.8000 126.700 70 1 11.8000 126.700 TC 70 11.1172 127.464 4 67 11.8000 126.700 70 988 360 9 270
1947302N11134 1947 86 WP MM CATHY 1947-10-29 21:00:00 TS 11.6172 126.417 main 90 49 P________PPP__ WP201947 11.7650 126.227 67 1 11.7650 126.227 TC 67 11.1738 126.986 4 66 11.7650 126.227 67 988 390 9 268
1947302N11134 1947 86 WP MM CATHY 1947-10-30 00:00:00 TS 11.6000 125.975 main 49 15 O________OOO__ jtwc_wp WP201947 11.7000 125.800 65 1 11.7000 125.800 TC 65 11.3000 126.500 4 65 11.7000 125.800 65 989 420 8 270
1947302N11134 1947 86 WP MM CATHY 1947-10-30 03:00:00 TS 11.6102 125.570 main 15 0 P________PPP__ WP201947 11.6349 125.427 65 1 11.6349 125.427 TC 65 11.5362 126.000 4 65 11.6349 125.427 65 990 390 8 275
1947302N11134 1947 86 WP MM CATHY 1947-10-30 06:00:00 TS 11.6600 125.198 main 0 0 O________OPO__ jtwc_wp WP201947 11.6000 125.100 65 1 11.6000 125.100 TC 65 11.8399 125.493 4 65 11.6000 125.100 65 991 360 7 281
1947302N11134 1947 86 WP MM CATHY 1947-10-30 09:00:00 TS 11.7471 124.853 main 10 10 P________PPP__ WP201947 11.6049 124.807 65 1 11.6049 124.807 TC 65 12.1737 124.990 4 65 11.6049 124.807 65 991 390 7 289
1947302N11134 1947 86 WP MM CATHY 1947-10-30 12:00:00 TS 11.9000 124.500 main 24 10 O________OOO__ jtwc_wp WP201947 11.7000 124.500 65 1 11.7000 124.500 TC 65 12.5000 124.500 4 65 11.7000 124.500 65 992 420 8 297
1947302N11134 1947 86 WP MM CATHY 1947-10-30 15:00:00 TS 12.0980 124.135 main 10 10 P________PPP__ WP201947 11.8747 124.167 65 1 11.8747 124.167 TC 65 12.7680 124.039 4 65 11.8747 124.167 65 992 450 10 302
1947302N11134 1947 86 WP MM CATHY 1947-10-30 18:00:00 TS 12.4055 123.673 main 15 10 O________OPO__ jtwc_wp WP201947 12.2000 123.700 65 1 12.2000 123.700 TC 65 13.0219 123.592 4 65 12.2000 123.700 65 993 480 14 305
1947302N11134 1947 86 WP MM CATHY 1947-10-30 21:00:00 TS 12.8792 122.995 main 34 0 P________PPP__ WP201947 12.7506 122.943 65 1 12.7506 122.943 TC 65 13.2649 123.149 4 65 12.7506 122.943 65 993 450 16 306
1947302N11134 1947 86 WP MM CATHY 1947-10-31 00:00:00 TS 13.3500 122.325 main 15 15 O________OOO__ jtwc_wp WP201947 13.3000 122.200 65 1 13.3000 122.200 TC 65 13.5000 122.700 4 65 13.3000 122.200 65 994 420 13 305
1947302N11134 1947 86 WP MM CATHY 1947-10-31 03:00:00 TS 13.6243 121.907 main 31 10 P________PPP__ WP201947 13.5871 121.797 65 1 13.5871 121.797 TC 65 13.7360 122.236 4 61 13.5871 121.797 65 994 420 9 304
1947302N11134 1947 86 WP MM CATHY 1947-10-31 06:00:00 TS 13.8412 121.566 main 10 0 O________OPO__ jtwc_wp WP201947 13.8000 121.500 65 1 13.8000 121.500 TC 65 13.9646 121.765 4 57 13.8000 121.500 65 994 420 9 305
1947302N11134 1947 86 WP MM CATHY 1947-10-31 09:00:00 TS 14.1214 121.169 main 0 0 P________PPP__ WP201947 14.0998 121.130 57 0 14.0998 121.130 TC 57 14.1860 121.286 4 53 14.0998 121.130 57 994 420 10 304
1947302N11134 1947 86 WP MM CATHY 1947-10-31 12:00:00 TS 14.4000 120.725 main 10 0 O________OOO__ jtwc_wp WP201947 14.4000 120.700 50 0 14.4000 120.700 TC 50 14.4000 120.800 2 50 14.4000 120.700 50 995 420 11 300
1947302N11134 1947 86 WP MM CATHY 1947-10-31 15:00:00 TS 14.6649 120.199 main 0 0 P________PPP__ WP201947 14.6801 120.165 50 0 14.6801 120.165 TC 50 14.6192 120.299 2 51 14.6801 120.165 50 995 420 12 295
1947302N11134 1947 86 WP MM CATHY 1947-10-31 18:00:00 TS 14.8825 119.648 main 53 53 O________OPO__ jtwc_wp WP201947 14.9000 119.600 50 0 14.9000 119.600 TC 50 14.8298 119.792 2 52 14.9000 119.600 50 996 420 11 290
1947302N11134 1947 86 WP MM CATHY 1947-10-31 21:00:00 TS 15.0286 119.159 main 87 87 P________PPP__ WP201947 15.0297 119.115 52 0 15.0297 119.115 TC 52 15.0255 119.290 2 53 15.0297 119.115 52 993 360 10 284
1947302N11134 1947 86 WP MM CATHY 1947-11-01 00:00:00 TS 15.1250 118.650 main 133 133 O________OOO__ jtwc_wp WP201947 15.1000 118.600 55 0 15.1000 118.600 TC 55 15.2000 118.800 2 55 15.1000 118.600 55 991 300 11 280
1947302N11134 1947 86 WP MM CATHY 1947-11-01 03:00:00 TS 15.2133 118.064 main 193 193 P________PPP__ WP201947 15.1650 117.972 57 0 15.1650 117.972 TC 57 15.3583 118.339 2 58 15.1650 117.972 57 988 270 12 277
1947302N11134 1947 86 WP MM CATHY 1947-11-01 06:00:00 TS 15.2736 117.448 main 258 258 O________OPO__ jtwc_wp WP201947 15.2000 117.300 60 0 15.2000 117.300 TC 60 15.4943 117.892 2 62 15.2000 117.300 60 986 240 12 274
1947302N11134 1947 86 WP MM CATHY 1947-11-01 09:00:00 TS 15.3019 116.850 main 320 320 P________PPP__ WP201947 15.1998 116.650 65 1 15.1998 116.650 TC 65 15.6083 117.449 2 66 15.1998 116.650 65 983 300 12 273
1947302N11134 1947 86 WP MM CATHY 1947-11-01 12:00:00 TS 15.3250 116.250 main 372 372 O________OOO__ jtwc_wp WP201947 15.2000 116.000 70 1 15.2000 116.000 TC 70 15.7000 117.000 4 70 15.2000 116.000 70 980 360 12 273
1947302N11134 1947 86 WP MM CATHY 1947-11-01 15:00:00 TS 15.3722 115.623 main 444 444 P________PPP__ WP201947 15.2350 115.320 75 1 15.2350 115.320 TC 75 15.7835 116.532 4 75 15.2350 115.320 75 977 390 12 275
1947302N11134 1947 86 WP MM CATHY 1947-11-01 18:00:00 TS 15.4362 115.039 main 507 507 O________OPO__ jtwc_wp WP201947 15.3000 114.700 80 1 15.3000 114.700 TC 80 15.8447 116.057 4 80 15.3000 114.700 80 975 420 11 278
1947302N11134 1947 86 WP MM CATHY 1947-11-01 21:00:00 TS 15.5151 114.537 main 559 523 P________PPP__ WP201947 15.3923 114.190 85 2 15.3923 114.190 TC 85 15.8835 115.579 4 85 15.3923 114.190 85 972 390 9 281
1947302N11134 1947 86 WP MM CATHY 1947-11-02 00:00:00 TS 15.6000 114.125 main 523 493 O________OOO__ jtwc_wp WP201947 15.5000 113.800 90 2 15.5000 113.800 TC 90 15.9000 115.100 4 90 15.5000 113.800 90 970 360 7 283
1947302N11134 1947 86 WP MM CATHY 1947-11-02 03:00:00 TS 15.6698 113.819 main 493 470 P________PPP__ WP201947 15.5997 113.550 95 2 15.5997 113.550 TC 95 15.8800 114.625 4 90 15.5997 113.550 95 967 390 6 283
1947302N11134 1947 86 WP MM CATHY 1947-11-02 06:00:00 TS 15.7355 113.512 main 470 433 O________OPO__ jtwc_wp WP201947 15.7000 113.300 100 3 15.7000 113.300 TC 100 15.8421 114.149 4 90 15.7000 113.300 100 965 420 7 281
1947302N11134 1947 86 WP MM CATHY 1947-11-02 09:00:00 TS 15.8076 113.090 main 433 390 P________PPP__ WP201947 15.8075 112.895 95 2 15.8075 112.895 TC 95 15.8081 113.674 4 90 15.8075 112.895 95 966 390 9 279
1947302N11134 1947 86 WP MM CATHY 1947-11-02 12:00:00 TS 15.8750 112.600 main 390 348 O________OOO__ jtwc_wp WP201947 15.9000 112.400 90 2 15.9000 112.400 TC 90 15.8000 113.200 4 90 15.9000 112.400 90 968 360 10 276
1947302N11134 1947 86 WP MM CATHY 1947-11-02 15:00:00 TS 15.9211 112.051 main 348 302 P________PPP__ WP201947 15.9502 111.827 85 2 15.9502 111.827 TC 85 15.8338 112.721 4 87 15.9502 111.827 85 969 330 10 276
1947302N11134 1947 86 WP MM CATHY 1947-11-02 18:00:00 TS 15.9743 111.536 main 292 262 O________OPO__ jtwc_wp WP201947 16.0000 111.300 80 1 16.0000 111.300 TC 80 15.8972 112.242 4 85 16.0000 111.300 80 971 300 9 280
1947302N11134 1947 86 WP MM CATHY 1947-11-02 21:00:00 TS 16.0716 111.153 main 266 236 P________PPP__ WP201947 16.0998 110.948 80 1 16.0998 110.948 TC 80 15.9870 111.768 4 82 16.0998 110.948 80 973 300 7 287
1947302N11134 1947 86 WP MM CATHY 1947-11-03 00:00:00 TS 16.1750 110.850 main 241 213 O________OOO__ jtwc_wp WP201947 16.2000 110.700 80 1 16.2000 110.700 TC 80 16.1000 111.300 4 80 16.2000 110.700 80 975 300 6 287
1947302N11134 1947 86 WP MM CATHY 1947-11-03 03:00:00 TS 16.2347 110.599 main 213 193 P________PPP__ WP201947 16.2423 110.522 77 1 16.2423 110.522 TC 77 16.2120 110.830 4 78 16.2423 110.522 77 976 270 5 285
1947302N11134 1947 86 WP MM CATHY 1947-11-03 06:00:00 TS 16.3126 110.319 main 193 177 O________OPO__ jtwc_wp WP201947 16.3000 110.300 75 1 16.3000 110.300 TC 75 16.3473 110.370 4 77 16.3000 110.300 75 978 240 7 289
1947302N11134 1947 86 WP MM CATHY 1947-11-03 09:00:00 TS 16.4679 109.913 main 177 144 P________PPP__ WP201947 16.4574 109.910 75 1 16.4574 109.910 TC 75 16.5089 109.924 4 76 16.4279 109.905 75 980 240 9 290
1947302N11134 1947 86 WP MM CATHY 1947-11-03 12:00:00 TS 16.6308 109.431 main 135 101 O________OOO__ jtwc_wp WP201947 16.6000 109.400 75 1 16.6000 109.400 TC 75 16.7000 109.500 4 75 16.6000 109.400 75 982 240 10 287
1947302N11134 1947 86 WP MM CATHY 1947-11-03 15:00:00 TS 16.7523 108.916 main 108 74 P________PP___ WP201947 16.6675 108.823 70 1 16.6675 108.823 TC 70 16.9218 109.101 4 11 277
1947302N11134 1947 86 WP MM CATHY 1947-11-03 18:00:00 TS 16.7549 108.343 main 69 10 O________OP___ jtwc_wp WP201947 16.6000 108.200 65 1 16.6000 108.200 TC 65 17.1679 108.723 4 12 259
1947302N11134 1947 86 WP MM CATHY 1947-11-03 21:00:00 TS 16.5262 107.709 main 10 0 P________PP___ WP201947 16.3002 107.547 55 0 16.3002 107.547 TC 55 17.4301 108.359 4 13 246
1947302N11134 1947 86 WP MM CATHY 1947-11-04 00:00:00 TS 16.2429 107.143 main 0 0 O________OO___ jtwc_wp WP201947 16.0000 107.000 45 0 16.0000 107.000 TC 45 17.7000 108.000 7 12 239
1947302N11134 1947 86 WP MM CATHY 1947-11-04 03:00:00 TS 15.9248 106.680 main 0 0 P________P____ WP201947 15.9248 106.680 37 0 15.9248 106.680 TC 37 7 7 249
1947302N11134 1947 86 WP MM CATHY 1947-11-04 06:00:00 TS 16.0000 106.500 main 0 O________O____ jtwc_wp WP201947 16.0000 106.500 30 -1 16.0000 106.500 TC 30 7 4 293

デジタル台風データ・検索

IBTrACS Databaseについて

本データベースは、米国NOAAが公開する1842年以降の世界の熱帯低気圧のベストトラックデータアーカイブInternational Best Track Archive for Climate Stewardship (IBTrACS)を、ウェブで閲覧しやすい形式に変換したものです。

最終更新日:2021-11-26